Main page
METAR-TAF:

METAR-TAF

Airports :

Plovdiv Airport

Plovdiv, Bulgaria

latitude: 42-08N, longitude: 024-45E, elevation: 179 m

Current weather observation

The report was made 16 minutes ago, at 18:00 UTC
Wind 3 kt from the West
Temperature 6°C
Humidity 87%
Pressure 1014 hPa
Visibility: 8000 m
Overcast at a height of 5500 ft

METAR: LBPD 271800Z AUTO 26003KT 8000 OVC055 06/04 Q1014 R99/19//95 BECMG 28014KT

Time: 20:16 (18:16 UTC)

Forecast

The report was made 1 hour and 16 minutes ago, at 17:00 UTC
Forecast valid from 27 at 18 UTC to 28 at 18 UTC
Wind 4 kt from variable directions
Visibility 10 km or more
Scattered clouds at a height of 4000 ft
Broken clouds at a height of 7000 ft
Temporary
from 27 at 18 UTC to 27 at 24 UTC
Visibility: 5000 m
Scattered clouds at a height of 1500 ft
Overcast at a height of 3000 ft
rain
Becoming
from 27 at 19 UTC to 27 at 21 UTC
Wind 14 kt from the West

TAF: LBPD 271700Z 2718/2818 VRB04KT 9999 SCT040 BKN070 TEMPO 2718/2724 5000 RA SCT015 OVC030 BECMG 2719/2721 28014KT

Weather observations and forecasts of more than 4000 airports (METAR and TAF reports).

The available stations are represented by yellow and red dots on the map.

Hover mouse over dot to see the name of the station.

Then click to see weather observations and forecasts.

To change the map : click on the green buttons with a black cross to zoom in, on the green button with a dash to zoom out, or on the green arrows for adjacent maps.


METAR-TAF: